sensor_id;sensor_type;location;lat;lon;timestamp;pressure;altitude;pressure_sealevel;temperature;humidity
78313;BME280;67568;47.438;21.408;2023-04-03T00:00:25;100257.78;;;7.16;73.54
78313;BME280;67568;47.438;21.408;2023-04-03T00:02:52;100260.84;;;7.14;73.62
78313;BME280;67568;47.438;21.408;2023-04-03T00:05:18;100264.13;;;7.11;73.34
78313;BME280;67568;47.438;21.408;2023-04-03T00:07:45;100268.81;;;7.11;73.13
78313;BME280;67568;47.438;21.408;2023-04-03T00:10:12;100256.75;;;6.96;71.58
78313;BME280;67568;47.438;21.408;2023-04-03T00:12:39;100262.25;;;6.96;70.56
78313;BME280;67568;47.438;21.408;2023-04-03T00:15:06;100252.09;;;6.87;71.01
78313;BME280;67568;47.438;21.408;2023-04-03T00:17:32;100260.34;;;6.92;71.99
78313;BME280;67568;47.438;21.408;2023-04-03T00:19:59;100261.19;;;6.92;71.51
78313;BME280;67568;47.438;21.408;2023-04-03T00:22:25;100270.25;;;6.93;70.75
78313;BME280;67568;47.438;21.408;2023-04-03T00:24:52;100266.94;;;7.01;70.66
78313;BME280;67568;47.438;21.408;2023-04-03T00:27:19;100285.16;;;6.92;69.68
78313;BME280;67568;47.438;21.408;2023-04-03T00:29:45;100277.94;;;7.01;69.51
78313;BME280;67568;47.438;21.408;2023-04-03T00:32:12;100288.72;;;6.92;71.06
78313;BME280;67568;47.438;21.408;2023-04-03T00:34:39;100282.41;;;6.82;69.20
78313;BME280;67568;47.438;21.408;2023-04-03T00:37:05;100287.91;;;6.82;70.24
78313;BME280;67568;47.438;21.408;2023-04-03T00:39:32;100296.72;;;6.84;70.54
78313;BME280;67568;47.438;21.408;2023-04-03T00:41:59;100300.31;;;6.74;71.48
78313;BME280;67568;47.438;21.408;2023-04-03T00:47:03;100304.44;;;6.71;70.32
78313;BME280;67568;47.438;21.408;2023-04-03T00:49:31;100312.44;;;6.63;72.56
78313;BME280;67568;47.438;21.408;2023-04-03T00:51:58;100308.88;;;6.62;70.71
78313;BME280;67568;47.438;21.408;2023-04-03T00:54:25;100316.56;;;6.70;71.22
78313;BME280;67568;47.438;21.408;2023-04-03T00:56:54;100317.94;;;6.63;71.46
78313;BME280;67568;47.438;21.408;2023-04-03T00:59:30;100308.88;;;6.62;71.00
78313;BME280;67568;47.438;21.408;2023-04-03T01:01:58;100319.31;;;6.65;69.75
78313;BME280;67568;47.438;21.408;2023-04-03T01:04:37;100320.97;;;6.56;70.46
78313;BME280;67568;47.438;21.408;2023-04-03T01:07:14;100313.53;;;6.57;70.69
78313;BME280;67568;47.438;21.408;2023-04-03T01:09:42;100310.53;;;6.58;71.09
78313;BME280;67568;47.438;21.408;2023-04-03T01:12:30;100329.53;;;6.49;69.86
78313;BME280;67568;47.438;21.408;2023-04-03T01:15:04;100319.31;;;6.60;69.76
78313;BME280;67568;47.438;21.408;2023-04-03T01:22:56;100325.94;;;6.54;69.89
78313;BME280;67568;47.438;21.408;2023-04-03T01:25:25;100321.28;;;6.49;69.57
78313;BME280;67568;47.438;21.408;2023-04-03T01:27:52;100319.91;;;6.47;71.09
78313;BME280;67568;47.438;21.408;2023-04-03T01:30:21;100327.59;;;6.50;69.57
78313;BME280;67568;47.438;21.408;2023-04-03T01:32:50;100327.59;;;6.55;70.59
78313;BME280;67568;47.438;21.408;2023-04-03T01:35:17;100320.44;;;6.59;68.84
78313;BME280;67568;47.438;21.408;2023-04-03T01:37:43;100326.50;;;6.61;70.74
78313;BME280;67568;47.438;21.408;2023-04-03T01:40:10;100322.66;;;6.52;69.69
78313;BME280;67568;47.438;21.408;2023-04-03T01:42:37;100320.69;;;6.37;69.61
78313;BME280;67568;47.438;21.408;2023-04-03T01:45:04;100321.00;;;6.41;69.58
78313;BME280;67568;47.438;21.408;2023-04-03T01:47:30;100310.53;;;6.38;71.43
78313;BME280;67568;47.438;21.408;2023-04-03T01:49:57;100326.50;;;6.41;70.55
78313;BME280;67568;47.438;21.408;2023-04-03T01:52:24;100319.34;;;6.40;70.86
78313;BME280;67568;47.438;21.408;2023-04-03T01:54:50;100331.19;;;6.35;70.90
78313;BME280;67568;47.438;21.408;2023-04-03T01:57:17;100337.22;;;6.37;68.92
78313;BME280;67568;47.438;21.408;2023-04-03T01:59:44;100336.94;;;6.39;69.33
78313;BME280;67568;47.438;21.408;2023-04-03T02:02:10;100339.69;;;6.34;70.33
78313;BME280;67568;47.438;21.408;2023-04-03T02:04:37;100345.75;;;6.36;70.71
78313;BME280;67568;47.438;21.408;2023-04-03T02:07:04;100338.59;;;6.29;70.19
78313;BME280;67568;47.438;21.408;2023-04-03T02:09:30;100343.00;;;6.25;69.05
78313;BME280;67568;47.438;21.408;2023-04-03T02:11:57;100342.97;;;6.20;69.90
78313;BME280;67568;47.438;21.408;2023-04-03T02:14:23;100337.78;;;6.24;70.44
78313;BME280;67568;47.438;21.408;2023-04-03T02:16:50;100344.94;;;6.30;70.38
78313;BME280;67568;47.438;21.408;2023-04-03T02:19:16;100349.34;;;6.36;70.62
78313;BME280;67568;47.438;21.408;2023-04-03T02:21:43;100338.06;;;6.38;69.25
78313;BME280;67568;47.438;21.408;2023-04-03T02:24:10;100350.69;;;6.34;70.01
78313;BME280;67568;47.438;21.408;2023-04-03T02:26:36;100352.34;;;6.35;71.07
78313;BME280;67568;47.438;21.408;2023-04-03T02:29:03;100344.09;;;6.35;70.53
78313;BME280;67568;47.438;21.408;2023-04-03T02:31:30;100346.56;;;6.36;70.18
78313;BME280;67568;47.438;21.408;2023-04-03T02:33:57;100346.31;;;6.38;70.68
78313;BME280;67568;47.438;21.408;2023-04-03T02:36:23;100351.53;;;6.39;69.76
78313;BME280;67568;47.438;21.408;2023-04-03T02:38:50;100347.41;;;6.42;69.56
78313;BME280;67568;47.438;21.408;2023-04-03T02:41:16;100360.06;;;6.43;69.83
78313;BME280;67568;47.438;21.408;2023-04-03T02:43:43;100348.50;;;6.36;68.95
78313;BME280;67568;47.438;21.408;2023-04-03T02:46:10;100358.69;;;6.25;71.35
78313;BME280;67568;47.438;21.408;2023-04-03T02:48:37;100340.50;;;6.19;70.40
78313;BME280;67568;47.438;21.408;2023-04-03T02:51:03;100344.66;;;6.21;71.28
78313;BME280;67568;47.438;21.408;2023-04-03T02:53:30;100345.22;;;6.23;70.32
78313;BME280;67568;47.438;21.408;2023-04-03T02:55:57;100349.88;;;6.18;71.37
78313;BME280;67568;47.438;21.408;2023-04-03T02:58:23;100355.38;;;6.13;70.69
78313;BME280;67568;47.438;21.408;2023-04-03T03:00:50;100352.56;;;5.97;71.12
78313;BME280;67568;47.438;21.408;2023-04-03T03:03:17;100349.28;;;6.05;71.81
78313;BME280;67568;47.438;21.408;2023-04-03T03:05:43;100354.50;;;5.97;71.26
78313;BME280;67568;47.438;21.408;2023-04-03T03:08:10;100356.44;;;5.96;71.62
78313;BME280;67568;47.438;21.408;2023-04-03T03:10:36;100351.75;;;6.02;71.97
78313;BME280;67568;47.438;21.408;2023-04-03T03:13:04;100358.34;;;5.96;71.29
78313;BME280;67568;47.438;21.408;2023-04-03T03:15:30;100356.66;;;5.90;71.35
78313;BME280;67568;47.438;21.408;2023-04-03T03:17:57;100366.00;;;5.89;71.81
78313;BME280;67568;47.438;21.408;2023-04-03T03:20:24;100371.22;;;5.90;70.97
78313;BME280;67568;47.438;21.408;2023-04-03T03:22:50;100371.81;;;5.97;70.98
78313;BME280;67568;47.438;21.408;2023-04-03T03:25:17;100375.34;;;5.88;70.85
78313;BME280;67568;47.438;21.408;2023-04-03T03:27:44;100375.38;;;5.93;71.29
78313;BME280;67568;47.438;21.408;2023-04-03T03:30:10;100372.66;;;5.98;71.49
78313;BME280;67568;47.438;21.408;2023-04-03T03:32:37;100370.44;;;6.00;70.41
78313;BME280;67568;47.438;21.408;2023-04-03T03:35:04;100374.03;;;6.00;70.48
78313;BME280;67568;47.438;21.408;2023-04-03T03:37:31;100377.31;;;5.97;70.64
78313;BME280;67568;47.438;21.408;2023-04-03T03:39:57;100379.00;;;5.98;71.30
78313;BME280;67568;47.438;21.408;2023-04-03T03:42:24;100385.88;;;6.01;70.61
78313;BME280;67568;47.438;21.408;2023-04-03T03:44:50;100400.16;;;5.98;71.16
78313;BME280;67568;47.438;21.408;2023-04-03T03:47:17;100383.63;;;5.93;70.57
78313;BME280;67568;47.438;21.408;2023-04-03T03:49:44;100395.19;;;6.00;70.96
78313;BME280;67568;47.438;21.408;2023-04-03T03:52:10;100396.84;;;5.96;70.57
78313;BME280;67568;47.438;21.408;2023-04-03T03:54:37;100389.69;;;5.95;70.10
78313;BME280;67568;47.438;21.408;2023-04-03T03:57:04;100390.72;;;5.89;70.54
78313;BME280;67568;47.438;21.408;2023-04-03T03:59:31;100389.63;;;5.84;71.46
78313;BME280;67568;47.438;21.408;2023-04-03T04:01:57;100389.34;;;5.81;71.67
78313;BME280;67568;47.438;21.408;2023-04-03T04:04:24;100386.59;;;5.76;70.47
78313;BME280;67568;47.438;21.408;2023-04-03T04:06:51;100387.41;;;5.76;71.15
78313;BME280;67568;47.438;21.408;2023-04-03T04:09:17;100393.19;;;5.80;71.27
78313;BME280;67568;47.438;21.408;2023-04-03T04:11:44;100382.47;;;5.78;70.85
78313;BME280;67568;47.438;21.408;2023-04-03T04:14:10;100381.09;;;5.81;70.80
78313;BME280;67568;47.438;21.408;2023-04-03T04:16:37;100385.44;;;5.72;71.04
78313;BME280;67568;47.438;21.408;2023-04-03T04:19:04;100383.53;;;5.67;70.87
78313;BME280;67568;47.438;21.408;2023-04-03T04:21:34;100383.53;;;5.67;71.69
78313;BME280;67568;47.438;21.408;2023-04-03T04:24:00;100386.25;;;5.62;71.61
78313;BME280;67568;47.438;21.408;2023-04-03T04:26:27;100386.25;;;5.62;72.05
78313;BME280;67568;47.438;21.408;2023-04-03T04:28:53;100387.59;;;5.59;71.44
78313;BME280;67568;47.438;21.408;2023-04-03T04:31:20;100391.69;;;5.47;72.84
78313;BME280;67568;47.438;21.408;2023-04-03T04:33:47;100380.41;;;5.48;72.08
78313;BME280;67568;47.438;21.408;2023-04-03T04:36:14;100390.50;;;5.37;73.00
78313;BME280;67568;47.438;21.408;2023-04-03T04:38:41;100389.97;;;5.35;73.25
78313;BME280;67568;47.438;21.408;2023-04-03T04:41:08;100385.31;;;5.36;72.52
78313;BME280;67568;47.438;21.408;2023-04-03T04:43:35;100386.72;;;5.44;73.41
78313;BME280;67568;47.438;21.408;2023-04-03T04:46:09;100394.53;;;5.67;72.79
78313;BME280;67568;47.438;21.408;2023-04-03T04:48:36;100398.94;;;5.73;72.38
78313;BME280;67568;47.438;21.408;2023-04-03T04:51:03;100401.53;;;5.95;71.84
78313;BME280;67568;47.438;21.408;2023-04-03T04:53:30;100404.03;;;6.07;71.13
78313;BME280;67568;47.438;21.408;2023-04-03T04:55:56;100408.16;;;6.15;70.98
78313;BME280;67568;47.438;21.408;2023-04-03T04:58:23;100404.06;;;6.12;70.86
78313;BME280;67568;47.438;21.408;2023-04-03T05:00:50;100393.84;;;6.07;70.23
78313;BME280;67568;47.438;21.408;2023-04-03T05:03:16;100410.69;;;6.21;71.08
78313;BME280;67568;47.438;21.408;2023-04-03T05:05:43;100399.97;;;6.66;68.83
78313;BME280;67568;47.438;21.408;2023-04-03T05:08:09;100400.53;;;6.93;69.07
78313;BME280;67568;47.438;21.408;2023-04-03T05:10:36;100405.75;;;7.05;68.07
78313;BME280;67568;47.438;21.408;2023-04-03T05:13:03;100416.47;;;7.32;65.85
78313;BME280;67568;47.438;21.408;2023-04-03T05:15:29;100416.69;;;7.51;65.56
78313;BME280;67568;47.438;21.408;2023-04-03T05:17:56;100420.72;;;7.79;65.04
78313;BME280;67568;47.438;21.408;2023-04-03T05:20:22;100414.81;;;8.06;63.52
78313;BME280;67568;47.438;21.408;2023-04-03T05:22:49;100414.16;;;8.25;63.51
78313;BME280;67568;47.438;21.408;2023-04-03T05:25:16;100420.38;;;7.96;62.67
78313;BME280;67568;47.438;21.408;2023-04-03T05:27:42;100414.34;;;7.94;62.19
78313;BME280;67568;47.438;21.408;2023-04-03T05:30:09;100425.38;;;7.94;63.01
78313;BME280;67568;47.438;21.408;2023-04-03T05:32:46;100431.56;;;7.55;63.52
78313;BME280;67568;47.438;21.408;2023-04-03T05:35:13;100425.97;;;7.81;62.00
78313;BME280;67568;47.438;21.408;2023-04-03T05:37:40;100431.97;;;7.98;63.52
78313;BME280;67568;47.438;21.408;2023-04-03T05:40:08;100434.63;;;8.14;62.13
78313;BME280;67568;47.438;21.408;2023-04-03T05:42:35;100437.13;;;8.65;60.02
78313;BME280;67568;47.438;21.408;2023-04-03T05:45:02;100438.88;;;9.19;59.01
78313;BME280;67568;47.438;21.408;2023-04-03T05:47:28;100438.28;;;8.53;59.05
78313;BME280;67568;47.438;21.408;2023-04-03T05:49:57;100436.91;;;8.56;57.03
78313;BME280;67568;47.438;21.408;2023-04-03T05:52:29;100443.06;;;8.38;59.43
78313;BME280;67568;47.438;21.408;2023-04-03T05:54:57;100456.88;;;7.83;58.98
78313;BME280;67568;47.438;21.408;2023-04-03T05:57:26;100453.63;;;7.45;60.20
78313;BME280;67568;47.438;21.408;2023-04-03T05:59:53;100453.38;;;7.41;61.69
78313;BME280;67568;47.438;21.408;2023-04-03T06:02:23;100462.47;;;7.37;60.29
78313;BME280;67568;47.438;21.408;2023-04-03T06:04:51;100453.16;;;7.12;61.62
78313;BME280;67568;47.438;21.408;2023-04-03T06:07:21;100453.88;;;7.59;59.79
78313;BME280;67568;47.438;21.408;2023-04-03T06:09:50;100456.25;;;7.91;60.94
78313;BME280;67568;47.438;21.408;2023-04-03T06:12:18;100461.63;;;8.27;58.22
78313;BME280;67568;47.438;21.408;2023-04-03T06:14:45;100469.31;;;8.45;56.23
78313;BME280;67568;47.438;21.408;2023-04-03T06:17:11;100461.34;;;8.78;58.47
78313;BME280;67568;47.438;21.408;2023-04-03T06:19:39;100464.13;;;9.07;57.05
78313;BME280;67568;47.438;21.408;2023-04-03T06:22:06;100466.97;;;9.60;54.74
78313;BME280;67568;47.438;21.408;2023-04-03T06:24:32;100472.88;;;10.02;54.49
78313;BME280;67568;47.438;21.408;2023-04-03T06:27:01;100480.91;;;10.65;53.61
78313;BME280;67568;47.438;21.408;2023-04-03T06:29:28;100483.78;;;11.12;52.79
78313;BME280;67568;47.438;21.408;2023-04-03T06:31:55;100485.75;;;11.58;51.31
78313;BME280;67568;47.438;21.408;2023-04-03T06:34:24;100486.16;;;11.51;50.52
78313;BME280;67568;47.438;21.408;2023-04-03T06:36:51;100494.41;;;11.84;51.05
78313;BME280;67568;47.438;21.408;2023-04-03T06:39:19;100485.25;;;11.69;50.15
78313;BME280;67568;47.438;21.408;2023-04-03T06:41:46;100498.78;;;12.18;50.74
78313;BME280;67568;47.438;21.408;2023-04-03T06:44:13;100504.41;;;11.85;50.15
78313;BME280;67568;47.438;21.408;2023-04-03T06:46:40;100491.59;;;11.42;48.94
78313;BME280;67568;47.438;21.408;2023-04-03T06:49:06;100500.75;;;11.10;50.81
78313;BME280;67568;47.438;21.408;2023-04-03T06:51:36;100501.47;;;12.09;48.25
78313;BME280;67568;47.438;21.408;2023-04-03T06:54:04;100505.00;;;12.65;45.61
78313;BME280;67568;47.438;21.408;2023-04-03T06:56:31;100511.13;;;12.53;47.05
78313;BME280;67568;47.438;21.408;2023-04-03T06:58:58;100512.31;;;12.60;45.84
78313;BME280;67568;47.438;21.408;2023-04-03T07:01:31;100515.66;;;12.85;45.26
78313;BME280;67568;47.438;21.408;2023-04-03T07:03:58;100523.25;;;12.43;46.48
78313;BME280;67568;47.438;21.408;2023-04-03T07:06:25;100519.63;;;12.70;44.79
78313;BME280;67568;47.438;21.408;2023-04-03T07:08:55;100517.31;;;12.50;44.43
78313;BME280;67568;47.438;21.408;2023-04-03T07:11:22;100519.44;;;12.89;44.41
78313;BME280;67568;47.438;21.408;2023-04-03T07:13:49;100513.13;;;13.34;44.47
78313;BME280;67568;47.438;21.408;2023-04-03T07:16:15;100527.59;;;13.22;43.36
78313;BME280;67568;47.438;21.408;2023-04-03T07:18:42;100523.22;;;13.43;44.56
78313;BME280;67568;47.438;21.408;2023-04-03T07:21:09;100526.53;;;13.32;42.96
78313;BME280;67568;47.438;21.408;2023-04-03T07:23:36;100517.97;;;14.04;43.71
78313;BME280;67568;47.438;21.408;2023-04-03T07:26:03;100526.59;;;13.18;42.42
78313;BME280;67568;47.438;21.408;2023-04-03T07:28:32;100534.38;;;13.75;43.42
78313;BME280;67568;47.438;21.408;2023-04-03T07:33:27;100530.66;;;12.62;45.13
78313;BME280;67568;47.438;21.408;2023-04-03T07:35:54;100536.69;;;13.14;44.11
78313;BME280;67568;47.438;21.408;2023-04-03T07:38:20;100542.88;;;13.11;41.96
78313;BME280;67568;47.438;21.408;2023-04-03T07:40:48;100535.34;;;13.47;43.61
78313;BME280;67568;47.438;21.408;2023-04-03T07:43:17;100545.53;;;13.52;42.60
78313;BME280;67568;47.438;21.408;2023-04-03T07:45:44;100540.50;;;13.40;41.54
78313;BME280;67568;47.438;21.408;2023-04-03T07:48:12;100539.50;;;13.36;39.15
78313;BME280;67568;47.438;21.408;2023-04-03T07:50:43;100531.47;;;13.35;40.01
78313;BME280;67568;47.438;21.408;2023-04-03T07:53:10;100540.28;;;13.28;40.23
78313;BME280;67568;47.438;21.408;2023-04-03T07:55:37;100541.09;;;13.51;40.10
78313;BME280;67568;47.438;21.408;2023-04-03T07:58:04;100525.25;;;13.15;39.36
78313;BME280;67568;47.438;21.408;2023-04-03T08:00:32;100536.81;;;12.72;40.81
78313;BME280;67568;47.438;21.408;2023-04-03T08:02:58;100554.44;;;13.63;38.85
78313;BME280;67568;47.438;21.408;2023-04-03T08:05:25;100543.25;;;14.16;39.09
78313;BME280;67568;47.438;21.408;2023-04-03T08:07:52;100550.66;;;13.59;38.13
78313;BME280;67568;47.438;21.408;2023-04-03T08:10:18;100547.59;;;14.00;39.12
78313;BME280;67568;47.438;21.408;2023-04-03T08:12:47;100551.28;;;14.18;39.65
78313;BME280;67568;47.438;21.408;2023-04-03T08:15:14;100542.06;;;14.49;38.90
78313;BME280;67568;47.438;21.408;2023-04-03T08:17:44;100536.41;;;14.31;39.65
78313;BME280;67568;47.438;21.408;2023-04-03T08:20:11;100542.22;;;14.04;39.17
78313;BME280;67568;47.438;21.408;2023-04-03T08:22:42;100537.81;;;13.49;40.22
78313;BME280;67568;47.438;21.408;2023-04-03T08:25:09;100538.84;;;13.84;40.31
78313;BME280;67568;47.438;21.408;2023-04-03T08:27:38;100541.38;;;14.43;38.28
78313;BME280;67568;47.438;21.408;2023-04-03T08:30:07;100544.44;;;14.90;38.52
78313;BME280;67568;47.438;21.408;2023-04-03T08:32:34;100550.97;;;14.68;38.48
78313;BME280;67568;47.438;21.408;2023-04-03T08:35:05;100550.72;;;13.09;39.12
78313;BME280;67568;47.438;21.408;2023-04-03T08:37:35;100550.94;;;13.57;39.65
78313;BME280;67568;47.438;21.408;2023-04-03T08:40:08;100565.31;;;14.04;38.72
78313;BME280;67568;47.438;21.408;2023-04-03T08:42:51;100558.38;;;14.73;39.24
78313;BME280;67568;47.438;21.408;2023-04-03T08:45:44;100555.28;;;15.61;37.76
78313;BME280;67568;47.438;21.408;2023-04-03T08:48:16;100549.25;;;13.70;38.81
78313;BME280;67568;47.438;21.408;2023-04-03T08:50:46;100553.88;;;12.79;40.69
78313;BME280;67568;47.438;21.408;2023-04-03T08:53:16;100552.19;;;12.42;40.90
78313;BME280;67568;47.438;21.408;2023-04-03T08:55:46;100545.56;;;13.16;39.82
78313;BME280;67568;47.438;21.408;2023-04-03T08:58:25;100546.22;;;13.35;40.26
78313;BME280;67568;47.438;21.408;2023-04-03T09:01:04;100561.97;;;13.03;40.11
78313;BME280;67568;47.438;21.408;2023-04-03T09:03:41;100564.69;;;13.76;39.58
78313;BME280;67568;47.438;21.408;2023-04-03T09:06:16;100570.16;;;14.21;38.35
78313;BME280;67568;47.438;21.408;2023-04-03T09:09:05;100556.94;;;14.35;38.88
78313;BME280;67568;47.438;21.408;2023-04-03T09:14:21;100560.09;;;13.80;39.33
78313;BME280;67568;47.438;21.408;2023-04-03T09:16:55;100560.75;;;14.08;37.15
78313;BME280;67568;47.438;21.408;2023-04-03T09:22:07;100562.19;;;15.72;35.89
78313;BME280;67568;47.438;21.408;2023-04-03T09:24:38;100573.75;;;17.07;33.18
78313;BME280;67568;47.438;21.408;2023-04-03T09:27:07;100571.94;;;18.93;31.71
78313;BME280;67568;47.438;21.408;2023-04-03T09:29:43;100571.22;;;18.47;31.28
78313;BME280;67568;47.438;21.408;2023-04-03T09:32:31;100582.09;;;18.73;30.44
78313;BME280;67568;47.438;21.408;2023-04-03T09:35:02;100578.75;;;17.01;32.57
78313;BME280;67568;47.438;21.408;2023-04-03T09:37:52;100590.84;;;18.23;31.06
78313;BME280;67568;47.438;21.408;2023-04-03T09:42:56;100589.06;;;18.18;30.06
78313;BME280;67568;47.438;21.408;2023-04-03T09:45:28;100580.22;;;18.53;30.74
78313;BME280;67568;47.438;21.408;2023-04-03T09:50:55;100598.34;;;20.77;27.24
78313;BME280;67568;47.438;21.408;2023-04-03T09:55:55;100592.41;;;20.18;27.69
78313;BME280;67568;47.438;21.408;2023-04-03T09:58:33;100600.94;;;19.50;28.50
78313;BME280;67568;47.438;21.408;2023-04-03T10:01:36;100590.41;;;20.19;26.84
78313;BME280;67568;47.438;21.408;2023-04-03T10:04:19;100588.25;;;20.44;26.90
78313;BME280;67568;47.438;21.408;2023-04-03T10:06:58;100592.69;;;20.93;26.61
78313;BME280;67568;47.438;21.408;2023-04-03T10:09:32;100599.22;;;20.17;27.65
78313;BME280;67568;47.438;21.408;2023-04-03T10:12:05;100600.50;;;19.36;28.33
78313;BME280;67568;47.438;21.408;2023-04-03T10:14:34;100619.13;;;20.25;26.84
78313;BME280;67568;47.438;21.408;2023-04-03T10:19:42;100611.56;;;21.43;25.01
78313;BME280;67568;47.438;21.408;2023-04-03T10:27:53;100623.22;;;21.42;24.61
78313;BME280;67568;47.438;21.408;2023-04-03T10:30:36;100608.50;;;19.09;27.44
78313;BME280;67568;47.438;21.408;2023-04-03T10:35:44;100603.03;;;17.93;28.47
78313;BME280;67568;47.438;21.408;2023-04-03T10:56:13;100602.53;;;19.23;27.95
78313;BME280;67568;47.438;21.408;2023-04-03T10:58:48;100601.47;;;19.27;27.11
78313;BME280;67568;47.438;21.408;2023-04-03T11:01:24;100589.25;;;18.01;27.69
78313;BME280;67568;47.438;21.408;2023-04-03T11:03:54;100590.63;;;17.82;28.58
78313;BME280;67568;47.438;21.408;2023-04-03T11:06:25;100598.88;;;18.12;27.25
78313;BME280;67568;47.438;21.408;2023-04-03T11:09:15;100607.44;;;18.28;28.37
78313;BME280;67568;47.438;21.408;2023-04-03T11:11:44;100597.06;;;19.02;28.01
78313;BME280;67568;47.438;21.408;2023-04-03T11:16:48;100585.31;;;21.59;24.16
78313;BME280;67568;47.438;21.408;2023-04-03T11:19:22;100581.22;;;21.75;24.11
78313;BME280;67568;47.438;21.408;2023-04-03T11:22:03;100582.81;;;23.45;22.20
78313;BME280;67568;47.438;21.408;2023-04-03T11:24:33;100574.13;;;23.61;21.44
78313;BME280;67568;47.438;21.408;2023-04-03T11:27:02;100560.91;;;21.47;24.21
78313;BME280;67568;47.438;21.408;2023-04-03T11:29:35;100565.91;;;18.21;26.92
78313;BME280;67568;47.438;21.408;2023-04-03T11:32:42;100562.63;;;16.69;29.33
78313;BME280;67568;47.438;21.408;2023-04-03T11:35:13;100570.38;;;14.91;33.12
78313;BME280;67568;47.438;21.408;2023-04-03T11:37:47;100579.38;;;14.30;34.29
78313;BME280;67568;47.438;21.408;2023-04-03T11:40:28;100584.13;;;14.30;33.81
78313;BME280;67568;47.438;21.408;2023-04-03T11:45:35;100561.09;;;13.31;36.40
78313;BME280;67568;47.438;21.408;2023-04-03T11:53:40;100552.97;;;12.70;38.92
78313;BME280;67568;47.438;21.408;2023-04-03T12:01:43;100556.00;;;12.05;39.06
78313;BME280;67568;47.438;21.408;2023-04-03T12:04:12;100540.44;;;11.90;39.25
78313;BME280;67568;47.438;21.408;2023-04-03T12:12:39;100532.44;;;11.69;40.62
78313;BME280;67568;47.438;21.408;2023-04-03T12:15:19;100546.84;;;11.71;41.05
78313;BME280;67568;47.438;21.408;2023-04-03T12:17:46;100544.66;;;11.22;41.39
78313;BME280;67568;47.438;21.408;2023-04-03T12:23:32;100541.59;;;10.86;41.12
78313;BME280;67568;47.438;21.408;2023-04-03T12:26:04;100540.91;;;10.75;41.00
78313;BME280;67568;47.438;21.408;2023-04-03T12:28:40;100535.19;;;10.66;41.35
78313;BME280;67568;47.438;21.408;2023-04-03T12:31:10;100541.34;;;10.63;42.00
78313;BME280;67568;47.438;21.408;2023-04-03T12:33:51;100538.25;;;10.46;41.08
78313;BME280;67568;47.438;21.408;2023-04-03T12:36:41;100535.94;;;10.72;42.49
78313;BME280;67568;47.438;21.408;2023-04-03T12:44:52;100544.16;;;10.10;42.79
78313;BME280;67568;47.438;21.408;2023-04-03T12:47:31;100524.38;;;9.98;42.52
78313;BME280;67568;47.438;21.408;2023-04-03T12:50:02;100541.19;;;10.06;42.05
78313;BME280;67568;47.438;21.408;2023-04-03T12:52:41;100539.56;;;9.76;42.70
78313;BME280;67568;47.438;21.408;2023-04-03T12:55:18;100549.28;;;9.74;42.25
78313;BME280;67568;47.438;21.408;2023-04-03T12:58:14;100540.59;;;9.56;42.25
78313;BME280;67568;47.438;21.408;2023-04-03T13:00:41;100530.03;;;9.58;42.51
78313;BME280;67568;47.438;21.408;2023-04-03T13:03:24;100541.31;;;9.67;43.61
78313;BME280;67568;47.438;21.408;2023-04-03T13:05:56;100543.31;;;9.90;43.30
78313;BME280;67568;47.438;21.408;2023-04-03T13:08:24;100535.88;;;10.10;41.62
78313;BME280;67568;47.438;21.408;2023-04-03T13:13:22;100544.31;;;9.41;39.87
78313;BME280;67568;47.438;21.408;2023-04-03T13:15:50;100536.59;;;9.38;41.92
78313;BME280;67568;47.438;21.408;2023-04-03T13:20:50;100539.84;;;9.11;42.69
78313;BME280;67568;47.438;21.408;2023-04-03T13:23:19;100547.75;;;9.28;43.14
78313;BME280;67568;47.438;21.408;2023-04-03T13:25:54;100543.94;;;9.19;43.02
78313;BME280;67568;47.438;21.408;2023-04-03T13:28:25;100537.47;;;9.34;43.91
78313;BME280;67568;47.438;21.408;2023-04-03T13:31:22;100549.31;;;9.39;43.76
78313;BME280;67568;47.438;21.408;2023-04-03T13:34:09;100546.25;;;9.41;44.21
78313;BME280;67568;47.438;21.408;2023-04-03T13:36:40;100545.97;;;9.08;43.42
78313;BME280;67568;47.438;21.408;2023-04-03T13:39:25;100553.53;;;8.92;42.85
78313;BME280;67568;47.438;21.408;2023-04-03T13:41:57;100561.00;;;8.92;44.44
78313;BME280;67568;47.438;21.408;2023-04-03T13:44:31;100562.72;;;8.83;45.43
78313;BME280;67568;47.438;21.408;2023-04-03T13:46:59;100561.75;;;9.03;44.08
78313;BME280;67568;47.438;21.408;2023-04-03T13:49:39;100570.09;;;8.92;43.32
78313;BME280;67568;47.438;21.408;2023-04-03T13:52:30;100568.84;;;8.69;42.97
78313;BME280;67568;47.438;21.408;2023-04-03T13:55:11;100556.88;;;8.19;44.95
78313;BME280;67568;47.438;21.408;2023-04-03T13:57:55;100565.31;;;8.53;46.42
78313;BME280;67568;47.438;21.408;2023-04-03T14:01:09;100572.00;;;8.47;45.54
78313;BME280;67568;47.438;21.408;2023-04-03T14:03:33;100562.06;;;8.46;44.37
78313;BME280;67568;47.438;21.408;2023-04-03T14:06:00;100550.25;;;8.20;44.64
78313;BME280;67568;47.438;21.408;2023-04-03T14:08:28;100540.09;;;8.05;44.30
78313;BME280;67568;47.438;21.408;2023-04-03T14:11:19;100545.00;;;8.19;44.95
78313;BME280;67568;47.438;21.408;2023-04-03T14:13:48;100543.94;;;8.09;45.42
78313;BME280;67568;47.438;21.408;2023-04-03T14:16:17;100553.59;;;8.12;45.84
78313;BME280;67568;47.438;21.408;2023-04-03T14:18:46;100539.78;;;8.17;46.50
78313;BME280;67568;47.438;21.408;2023-04-03T14:21:14;100531.28;;;7.93;46.04
78313;BME280;67568;47.438;21.408;2023-04-03T14:23:42;100532.13;;;7.94;46.25
78313;BME280;67568;47.438;21.408;2023-04-03T14:26:12;100535.97;;;7.98;45.20
78313;BME280;67568;47.438;21.408;2023-04-03T14:28:39;100539.00;;;7.91;46.45